createdAt,value
2017-06-26T00:00:09.661Z,80.4
2017-06-26T00:01:08.861Z,80.3
2017-06-26T00:02:08.444Z,80.4
2017-06-26T00:03:07.652Z,80.7
2017-06-26T00:04:07.498Z,80.9
2017-06-26T00:05:06.693Z,80.8
2017-06-26T00:06:05.664Z,81.2
2017-06-26T00:07:05.241Z,81.5
2017-06-26T00:08:04.315Z,81.6
2017-06-26T00:10:03.547Z,82.1
2017-06-26T00:11:02.306Z,82
2017-06-26T00:12:01.885Z,81.7
2017-06-26T00:13:01.086Z,82
2017-06-26T00:14:00.786Z,82
2017-06-26T00:14:59.982Z,82.5
2017-06-26T00:15:59.436Z,82.5
2017-06-26T00:16:58.648Z,82.9
2017-06-26T00:17:57.851Z,82.4
2017-06-26T00:18:57.044Z,83.1
2017-06-26T00:19:56.738Z,83
2017-06-26T00:20:55.816Z,83.8
2017-06-26T00:21:55.773Z,83.5
2017-06-26T00:22:54.469Z,83.5
2017-06-26T00:23:53.702Z,83.4
2017-06-26T00:24:53.402Z,83.1
2017-06-26T00:25:52.482Z,83.6
2017-06-26T00:26:52.186Z,83.8
2017-06-26T00:27:51.636Z,84.1
2017-06-26T00:29:49.719Z,83.9
2017-06-26T00:30:49.422Z,83.9
2017-06-26T00:31:48.502Z,83.4
2017-06-26T00:32:48.199Z,83.6
2017-06-26T00:34:47.031Z,84.1
2017-06-26T00:36:45.115Z,84.1
2017-06-26T00:37:44.822Z,84.6
2017-06-26T00:38:44.014Z,84.7
2017-06-26T00:39:43.204Z,84.3
2017-06-26T00:40:42.650Z,84.1
2017-06-26T00:41:41.727Z,84.7
2017-06-26T00:42:41.424Z,84.6
2017-06-26T00:43:40.629Z,84.6
2017-06-26T00:44:39.833Z,84.9
2017-06-26T00:45:39.537Z,85
2017-06-26T00:46:38.986Z,85.2
2017-06-26T00:47:38.178Z,85
2017-06-26T00:48:37.379Z,85.2
2017-06-26T00:49:36.460Z,85.1
2017-06-26T00:50:35.941Z,84.8
2017-06-26T00:51:35.534Z,84.4
2017-06-26T00:52:34.863Z,85.3
2017-06-26T00:53:34.059Z,85
2017-06-26T00:54:33.253Z,84.8
2017-06-26T00:55:33.406Z,84.5
2017-06-26T00:56:32.099Z,84.4
2017-06-26T00:57:31.180Z,84.4
2017-06-26T00:58:30.687Z,84.3
2017-06-26T00:59:29.900Z,84.3
2017-06-26T01:00:29.102Z,84
2017-06-26T01:01:28.803Z,84
2017-06-26T01:02:27.999Z,83.8
2017-06-26T01:03:27.193Z,83.7
2017-06-26T01:04:26.903Z,84
2017-06-26T01:05:26.095Z,83.8
2017-06-26T01:06:25.286Z,83.8
2017-06-26T01:07:24.618Z,83.5
2017-06-26T01:08:23.821Z,83.3
2017-06-26T01:09:22.906Z,83.1
2017-06-26T01:10:22.859Z,82.9
2017-06-26T01:11:22.619Z,82.9
2017-06-26T01:12:21.312Z,83.1
2017-06-26T01:13:20.513Z,83.1
2017-06-26T01:14:19.980Z,83.3
2017-06-26T01:15:19.061Z,83.6
2017-06-26T01:17:17.905Z,83.4
2017-06-26T01:18:17.107Z,83.4
2017-06-26T01:19:16.303Z,83.2
2017-06-26T01:20:16.026Z,83.3
2017-06-26T01:21:15.232Z,83.2
2017-06-26T01:22:14.320Z,83.2
2017-06-26T01:23:14.274Z,83.1
2017-06-26T01:24:12.977Z,83.4
2017-06-26T01:25:12.671Z,83.4
2017-06-26T01:26:11.866Z,83.6
2017-06-26T01:27:10.950Z,83.4
2017-06-26T01:28:10.534Z,83.8
2017-06-26T01:29:10.264Z,83.5
2017-06-26T01:30:09.228Z,83.6
2017-06-26T01:31:08.431Z,84.1
2017-06-26T01:32:07.632Z,84.2
2017-06-26T01:33:07.332Z,84
2017-06-26T01:33:37.840Z,84
2017-06-26T01:34:08.350Z,84.1
2017-06-26T01:35:05.789Z,84.3
2017-06-26T01:36:04.865Z,84
2017-06-26T01:37:04.571Z,84.1
2017-06-26T01:38:03.661Z,84.1
2017-06-26T01:39:02.857Z,84.3
2017-06-26T01:40:02.695Z,84.1
2017-06-26T01:41:01.893Z,84.3
2017-06-26T01:42:01.090Z,84.2
2017-06-26T01:43:00.292Z,84.4
2017-06-26T01:43:59.489Z,84.8
2017-06-26T01:44:59.191Z,84.4
2017-06-26T01:45:58.653Z,84.2
2017-06-26T01:46:57.851Z,84.6
2017-06-26T01:47:57.050Z,84.5
2017-06-26T01:48:56.127Z,83.9
2017-06-26T01:49:55.708Z,83.8
2017-06-26T01:50:54.941Z,84
2017-06-26T01:51:54.776Z,84
2017-06-26T01:52:53.731Z,84.1
2017-06-26T01:53:52.932Z,84
2017-06-26T01:54:52.125Z,84.2
2017-06-26T01:55:51.820Z,84.2
2017-06-26T01:56:51.015Z,84.3
2017-06-26T01:57:50.466Z,83.9
2017-06-26T01:58:49.551Z,84
2017-06-26T01:59:48.632Z,84
2017-06-26T02:00:48.332Z,83.4
2017-06-26T02:01:47.417Z,83.5
2017-06-26T02:02:47.118Z,83.7
2017-06-26T02:04:45.962Z,83
2017-06-26T02:05:44.689Z,82.9
2017-06-26T02:06:44.272Z,82.7
2017-06-26T02:07:43.468Z,82.4
2017-06-26T02:08:43.168Z,82.5
2017-06-26T02:09:42.372Z,82.4
2017-06-26T02:10:41.821Z,82.6
2017-06-26T02:11:41.020Z,82.4
2017-06-26T02:12:40.234Z,82.4
2017-06-26T02:13:39.435Z,82.4
2017-06-26T02:14:39.137Z,82.5
2017-06-26T02:15:38.212Z,82.2
2017-06-26T02:16:38.002Z,82.3
2017-06-26T02:17:37.089Z,82.5
2017-06-26T02:18:36.283Z,82.4
2017-06-26T02:19:35.476Z,82.3
2017-06-26T02:20:34.673Z,82.3
2017-06-26T02:21:34.375Z,82.3
2017-06-26T02:22:33.821Z,82.2
2017-06-26T02:23:33.074Z,82
2017-06-26T02:24:32.279Z,81.8
2017-06-26T02:25:31.480Z,81.6
2017-06-26T02:26:30.675Z,81.7
2017-06-26T02:27:30.377Z,81.7
2017-06-26T02:28:29.822Z,81.4
2017-06-26T02:29:29.020Z,81
2017-06-26T02:30:28.216Z,81.3
2017-06-26T02:31:27.297Z,80.8
2017-06-26T02:32:27.009Z,80.8
2017-06-26T02:33:26.200Z,80.7
2017-06-26T02:34:25.657Z,80.7
2017-06-26T02:35:24.743Z,80.8
2017-06-26T02:36:23.945Z,80.5
2017-06-26T02:37:23.527Z,80.4
2017-06-26T02:38:22.887Z,80.2
2017-06-26T02:39:21.967Z,80.2
2017-06-26T02:40:21.922Z,80.2
2017-06-26T02:41:20.616Z,80.2
2017-06-26T02:42:20.313Z,80.1
2017-06-26T02:43:19.513Z,80.1
2017-06-26T02:44:18.594Z,80.2
2017-06-26T02:45:18.291Z,80.3
2017-06-26T02:47:17.125Z,79.9
2017-06-26T02:48:16.312Z,79.7
2017-06-26T02:49:15.492Z,79.8
2017-06-26T02:50:14.675Z,79.6
2017-06-26T02:51:14.404Z,79.4
2017-06-26T02:52:13.594Z,79.5
2017-06-26T02:53:13.042Z,79.5
2017-06-26T02:54:12.233Z,79.4
2017-06-26T02:55:11.296Z,79.5
2017-06-26T02:56:10.983Z,79.5
2017-06-26T02:57:10.169Z,79.6
2017-06-26T02:58:09.357Z,79.5
2017-06-26T02:59:09.308Z,79.7
2017-06-26T03:00:08.371Z,79.7
2017-06-26T03:01:07.555Z,79.6
2017-06-26T03:02:06.742Z,79.7
2017-06-26T03:03:06.313Z,79.7
2017-06-26T03:04:05.495Z,79.7
2017-06-26T03:05:04.939Z,79.6
2017-06-26T03:06:04.391Z,79.7
2017-06-26T03:07:03.574Z,79.9
2017-06-26T03:08:02.788Z,80.2
2017-06-26T03:09:02.482Z,80.2
2017-06-26T03:10:01.557Z,80.2
2017-06-26T03:11:01.383Z,80.4
2017-06-26T03:12:00.065Z,79.9
2017-06-26T03:12:59.759Z,79.5
2017-06-26T03:13:58.947Z,79.4
2017-06-26T03:14:58.137Z,79.3
2017-06-26T03:15:57.472Z,79
2017-06-26T03:16:57.470Z,79.1
2017-06-26T03:17:56.158Z,79
2017-06-26T03:18:55.604Z,78.8
2017-06-26T03:19:55.053Z,78.4
2017-06-26T03:20:54.238Z,78.5
2017-06-26T03:21:53.805Z,78.4
2017-06-26T03:22:53.271Z,78
2017-06-26T03:23:52.464Z,78.1
2017-06-26T03:24:51.653Z,78
2017-06-26T03:25:51.223Z,77.7
2017-06-26T03:26:50.404Z,77.7
2017-06-26T03:27:49.654Z,77.6
2017-06-26T03:28:49.099Z,77.5
2017-06-26T03:29:48.286Z,77.4
2017-06-26T03:30:47.985Z,77
2017-06-26T03:31:47.172Z,76.9
2017-06-26T03:32:46.361Z,76.6
2017-06-26T03:33:45.700Z,76.4
2017-06-26T03:34:45.223Z,76.4
2017-06-26T03:35:44.406Z,76.1
2017-06-26T03:36:43.594Z,76.3
2017-06-26T03:37:43.285Z,76.1
2017-06-26T03:38:42.467Z,76.3
2017-06-26T03:39:41.653Z,75.7
2017-06-26T03:40:41.595Z,75.7
2017-06-26T03:41:40.663Z,75.4
2017-06-26T03:42:39.845Z,75.5
2017-06-26T03:43:39.412Z,75.3
2017-06-26T03:44:38.603Z,75.4
2017-06-26T03:45:37.790Z,75.4
2017-06-26T03:46:37.292Z,75.5
2017-06-26T03:47:36.477Z,75.4
2017-06-26T03:48:35.931Z,75.3
2017-06-26T03:49:35.115Z,75.2
2017-06-26T03:50:34.802Z,75.3
2017-06-26T03:51:33.982Z,75.3
2017-06-26T03:52:33.418Z,75.2
2017-06-26T03:53:03.409Z,75.2
2017-06-26T03:53:33.781Z,75.4
2017-06-26T03:54:04.154Z,75.4
2017-06-26T03:54:34.662Z,75.4
2017-06-26T03:55:31.329Z,75.2
2017-06-26T03:56:30.902Z,75.1
2017-06-26T03:57:30.089Z,75
2017-06-26T03:58:29.531Z,75.1
2017-06-26T03:59:28.857Z,75.1
2017-06-26T04:00:28.042Z,75.3
2017-06-26T04:01:27.224Z,75.4
2017-06-26T04:02:26.918Z,75.3
2017-06-26T04:03:25.995Z,75.5
2017-06-26T04:04:25.934Z,75.8
2017-06-26T04:05:24.621Z,75.6
2017-06-26T04:06:24.193Z,75.2
2017-06-26T04:07:23.376Z,75.5
2017-06-26T04:08:23.065Z,75.2
2017-06-26T04:09:22.246Z,75.2
2017-06-26T04:10:21.689Z,75.3
2017-06-26T04:11:20.748Z,75.4
2017-06-26T04:12:20.323Z,75.4
2017-06-26T04:13:19.666Z,75.3
2017-06-26T04:14:19.005Z,75.3
2017-06-26T04:14:49.265Z,75.3
2017-06-26T04:15:19.765Z,75.4
2017-06-26T04:16:17.446Z,75.5
2017-06-26T04:17:17.132Z,75.4
2017-06-26T04:18:16.318Z,75.4
2017-06-26T04:19:15.382Z,75.8
2017-06-26T04:20:14.832Z,75.7
2017-06-26T04:21:14.532Z,75.6
2017-06-26T04:22:13.606Z,75.7
2017-06-26T04:23:12.798Z,75.7
2017-06-26T04:24:12.491Z,75.7
2017-06-26T04:25:11.683Z,75.6
2017-06-26T04:26:11.018Z,75.8
2017-06-26T04:27:11.336Z,75.9
2017-06-26T04:28:09.930Z,76
2017-06-26T04:29:09.117Z,75.9
2017-06-26T04:30:08.308Z,75.9
2017-06-26T04:31:08.007Z,76
2017-06-26T04:32:07.199Z,76.1
2017-06-26T04:33:06.639Z,76.2
2017-06-26T04:34:05.711Z,76.2
2017-06-26T04:35:04.898Z,76.3
2017-06-26T04:36:04.585Z,76.5
2017-06-26T04:37:03.769Z,76.4
2017-06-26T04:38:03.346Z,76.4
2017-06-26T04:39:02.790Z,76.9
2017-06-26T04:40:01.861Z,76.8
2017-06-26T04:41:01.195Z,76.6
2017-06-26T04:42:59.766Z,76.5
2017-06-26T04:43:59.341Z,76.6
2017-06-26T04:44:58.787Z,76.8
2017-06-26T04:46:57.382Z,76.5
2017-06-26T04:47:56.570Z,76.5
2017-06-26T04:49:55.039Z,76.4
2017-06-26T04:51:54.249Z,76.5
2017-06-26T04:52:53.430Z,76.5
2017-06-26T04:53:52.610Z,76.5
2017-06-26T04:54:51.795Z,76.6
2017-06-26T04:55:51.479Z,76.5
2017-06-26T04:56:50.545Z,76.5
2017-06-26T04:57:50.270Z,76.7
2017-06-26T04:58:49.218Z,76.9
2017-06-26T05:00:47.814Z,77.3
2017-06-26T05:01:47.577Z,77.1
2017-06-26T05:03:46.408Z,77.2
2017-06-26T05:05:44.977Z,77.4
2017-06-26T05:06:44.162Z,77.6
2017-06-26T05:07:43.344Z,77.7
2017-06-26T05:08:43.033Z,77.7
2017-06-26T05:09:42.237Z,78
2017-06-26T05:10:41.477Z,78.1
2017-06-26T05:11:40.699Z,77.8
2017-06-26T05:12:40.389Z,77.6
2017-06-26T05:13:39.584Z,77.6
2017-06-26T05:14:39.352Z,77.6
2017-06-26T05:15:38.865Z,77.4
2017-06-26T05:16:37.546Z,77.3
2017-06-26T05:17:36.726Z,77
2017-06-26T05:18:36.415Z,76.8
2017-06-26T05:19:35.601Z,76.7
2017-06-26T05:20:34.784Z,76.5
2017-06-26T05:21:34.219Z,76.7
2017-06-26T05:22:33.411Z,76.6
2017-06-26T05:23:33.104Z,76.5
2017-06-26T05:24:32.179Z,76.2
2017-06-26T05:25:31.387Z,76
2017-06-26T05:26:31.079Z,76
2017-06-26T05:27:30.519Z,75.9
2017-06-26T05:28:29.477Z,75.6
2017-06-26T05:29:29.046Z,75.7
2017-06-26T05:30:28.113Z,75.9
2017-06-26T05:31:27.798Z,76.2
2017-06-26T05:32:26.982Z,75.5
2017-06-26T05:33:26.421Z,75.4
2017-06-26T05:34:25.493Z,74.7
2017-06-26T05:35:25.238Z,74.8
2017-06-26T05:36:24.421Z,74.4
2017-06-26T05:37:23.612Z,74.6
2017-06-26T05:38:22.811Z,74
2017-06-26T05:39:22.762Z,73.7
2017-06-26T05:40:21.943Z,73.6
2017-06-26T05:41:21.130Z,73.5
2017-06-26T05:42:20.205Z,73.1
2017-06-26T05:43:19.896Z,72.4
2017-06-26T05:44:19.082Z,72.2
2017-06-26T05:45:18.410Z,72.4
2017-06-26T05:46:17.625Z,72
2017-06-26T05:48:16.708Z,72
2017-06-26T05:49:15.772Z,72.3
2017-06-26T05:50:15.226Z,71.6
2017-06-26T05:51:14.660Z,71.2
2017-06-26T05:52:13.842Z,71.5
2017-06-26T05:53:13.026Z,71.3
2017-06-26T05:54:12.715Z,71.5
2017-06-26T05:55:11.903Z,71.3
2017-06-26T05:56:11.094Z,71.2
2017-06-26T05:58:10.427Z,71.1
2017-06-26T05:59:09.111Z,71.1
2017-06-26T06:00:08.811Z,71.3
2017-06-26T06:01:07.885Z,71.7
2017-06-26T06:02:07.582Z,71.2
2017-06-26T06:03:06.846Z,71.4
2017-06-26T06:04:06.169Z,71.3
2017-06-26T06:05:05.239Z,71.2
2017-06-26T06:06:04.809Z,70.8
2017-06-26T06:07:04.200Z,71
2017-06-26T06:08:03.394Z,70.5
2017-06-26T06:09:03.001Z,70.2
2017-06-26T06:10:02.332Z,70.1
2017-06-26T06:11:01.283Z,70.5
2017-06-26T06:12:00.732Z,70.6
2017-06-26T06:13:00.420Z,70.5
2017-06-26T06:13:59.610Z,70.4
2017-06-26T06:14:58.794Z,70.5
2017-06-26T06:15:58.734Z,70.6
2017-06-26T06:16:57.914Z,71
2017-06-26T06:17:57.104Z,71.2
2017-06-26T06:18:56.168Z,71.3
2017-06-26T06:19:55.746Z,71.4
2017-06-26T06:20:54.815Z,71.7
2017-06-26T06:21:54.639Z,71.5
2017-06-26T06:22:53.821Z,71.8
2017-06-26T06:23:53.011Z,72.1
2017-06-26T06:24:52.591Z,72
2017-06-26T06:25:51.778Z,71.1
2017-06-26T06:26:51.420Z,71.1
2017-06-26T06:27:50.801Z,71
2017-06-26T06:28:49.861Z,71
2017-06-26T06:29:49.549Z,71.1
2017-06-26T06:30:48.615Z,71.1
2017-06-26T06:31:47.804Z,71.2
2017-06-26T06:32:47.489Z,71.7
2017-06-26T06:33:46.924Z,71.5
2017-06-26T06:34:46.113Z,71.4
2017-06-26T06:35:45.297Z,71.8
2017-06-26T06:36:44.987Z,72.1
2017-06-26T06:37:44.167Z,71.6
2017-06-26T06:38:43.612Z,71.6
2017-06-26T06:39:42.936Z,71.7
2017-06-26T06:40:42.117Z,71.9
2017-06-26T06:41:41.806Z,71.7
2017-06-26T06:42:41.048Z,71.4
2017-06-26T06:43:40.236Z,71.3
2017-06-26T06:44:39.424Z,71.7
2017-06-26T06:45:39.378Z,71.6
2017-06-26T06:46:38.444Z,71.2
2017-06-26T06:47:37.625Z,71.2
2017-06-26T06:48:37.315Z,71.4
2017-06-26T06:49:36.506Z,71.6
2017-06-26T06:50:35.714Z,71.7
2017-06-26T06:51:35.668Z,71.8
2017-06-26T06:52:34.751Z,71.6
2017-06-26T06:53:33.946Z,71.5
2017-06-26T06:54:33.135Z,71.7
2017-06-26T06:55:32.836Z,71.6
2017-06-26T06:56:32.027Z,71.9
2017-06-26T06:57:31.473Z,72.4
2017-06-26T06:58:30.554Z,72.4
2017-06-26T06:59:30.250Z,72
2017-06-26T07:00:29.444Z,72
2017-06-26T07:01:28.653Z,72
2017-06-26T07:02:28.357Z,72.2
2017-06-26T07:03:27.810Z,72.3
2017-06-26T07:04:27.010Z,72.3
2017-06-26T07:05:26.201Z,72.1
2017-06-26T07:06:25.786Z,72.3
2017-06-26T07:07:24.985Z,72.3
2017-06-26T07:08:24.761Z,72.2
2017-06-26T07:09:23.774Z,72.2
2017-06-26T07:10:22.979Z,72.1
2017-06-26T07:11:22.570Z,72.3
2017-06-26T07:12:21.652Z,72.5
2017-06-26T07:13:20.855Z,71.8
2017-06-26T07:14:20.565Z,72
2017-06-26T07:15:19.890Z,71.9
2017-06-26T07:16:19.097Z,71.9
2017-06-26T07:17:18.175Z,71.7
2017-06-26T07:18:17.775Z,71.7
2017-06-26T07:19:17.239Z,71.6
2017-06-26T07:20:16.824Z,71.4
2017-06-26T07:22:15.667Z,71.5
2017-06-26T07:23:15.329Z,71.6
2017-06-26T07:24:14.028Z,71.3
2017-06-26T07:25:13.437Z,71.3
2017-06-26T07:26:12.646Z,71.6
2017-06-26T07:27:12.235Z,71.8
2017-06-26T07:28:11.696Z,71.6
2017-06-26T07:29:10.897Z,71.5
2017-06-26T07:30:10.111Z,71.7
2017-06-26T07:31:09.587Z,71.5
2017-06-26T07:32:08.816Z,71.4
2017-06-26T07:33:08.090Z,71.4
2017-06-26T07:34:08.610Z,71.6
2017-06-26T07:35:06.798Z,71.4
2017-06-26T07:36:06.503Z,71.5
2017-06-26T07:37:05.793Z,71.1
2017-06-26T07:38:04.996Z,71.3
2017-06-26T07:39:04.694Z,71.5
2017-06-26T07:40:04.025Z,71.6
2017-06-26T07:41:02.995Z,71.6
2017-06-26T07:42:02.580Z,71.6
2017-06-26T07:43:01.934Z,71.7
2017-06-26T07:44:01.131Z,71.7
2017-06-26T07:45:00.704Z,71.5
2017-06-26T07:46:00.115Z,71.6
2017-06-26T07:46:59.871Z,71.7
2017-06-26T07:47:58.573Z,71.7
2017-06-26T07:48:58.168Z,71.4
2017-06-26T07:49:57.459Z,71.4
2017-06-26T07:50:56.738Z,71.6
2017-06-26T07:51:56.697Z,71
2017-06-26T07:52:55.411Z,70.8
2017-06-26T07:53:55.108Z,70.8
2017-06-26T07:54:54.748Z,70.1
2017-06-26T07:55:53.449Z,70.4
2017-06-26T07:56:53.034Z,70.3
2017-06-26T07:57:52.752Z,70.2
2017-06-26T07:58:51.598Z,70.3
2017-06-26T07:59:51.069Z,70.2
2017-06-26T08:00:50.279Z,70.4
2017-06-26T08:01:49.993Z,70.7
2017-06-26T08:02:49.189Z,72.7
2017-06-26T08:04:48.100Z,75.6
2017-06-26T08:05:47.316Z,76.2
2017-06-26T08:07:45.962Z,77.5
2017-06-26T08:08:45.172Z,77.7
2017-06-26T08:09:44.885Z,77.9
2017-06-26T08:10:44.400Z,78.3
2017-06-26T08:11:43.615Z,78.2
2017-06-26T08:12:42.825Z,77.9
2017-06-26T08:13:42.079Z,77.7
2017-06-26T08:14:41.676Z,77.9
2017-06-26T08:15:40.877Z,77.9
2017-06-26T08:16:40.324Z,77.8
2017-06-26T08:17:39.531Z,77.6
2017-06-26T08:18:38.679Z,77.6
2017-06-26T08:19:38.395Z,77.6
2017-06-26T08:20:37.607Z,77.4
2017-06-26T08:21:37.385Z,77.2
2017-06-26T08:22:36.717Z,76.7
2017-06-26T08:23:35.422Z,76.4
2017-06-26T08:24:35.021Z,76.1
2017-06-26T08:25:34.233Z,75.9
2017-06-26T08:26:33.323Z,76
2017-06-26T08:27:33.026Z,76
2017-06-26T08:28:32.485Z,76.1
2017-06-26T08:30:30.954Z,75.2
2017-06-26T08:31:30.155Z,75.1
2017-06-26T08:32:29.359Z,74.9
2017-06-26T08:33:28.946Z,75.2
2017-06-26T08:34:28.334Z,75.5
2017-06-26T08:35:27.533Z,75.6
2017-06-26T08:36:26.738Z,75.6
2017-06-26T08:38:25.317Z,75.9
2017-06-26T08:39:25.023Z,75.9
2017-06-26T08:40:24.382Z,76.2
2017-06-26T08:41:23.583Z,76.5
2017-06-26T08:42:22.667Z,76.3
2017-06-26T08:43:22.241Z,76.7
2017-06-26T08:44:21.510Z,76.7
2017-06-26T08:45:20.719Z,76.6
2017-06-26T08:46:20.447Z,76.5
2017-06-26T08:47:19.412Z,76.5
2017-06-26T08:48:18.608Z,76.6
2017-06-26T08:49:18.067Z,76.4
2017-06-26T08:50:17.328Z,75.9
2017-06-26T08:51:16.414Z,75.9
2017-06-26T08:53:15.775Z,75.7
2017-06-26T08:54:14.794Z,75.7
2017-06-26T08:55:13.886Z,75.4
2017-06-26T08:56:13.596Z,75.4
2017-06-26T08:57:12.859Z,75.5
2017-06-26T09:00:11.100Z,75.8
2017-06-26T09:01:10.182Z,75.9
2017-06-26T09:02:09.388Z,76.2
2017-06-26T09:03:08.594Z,76.5
2017-06-26T09:04:07.790Z,76
2017-06-26T09:05:07.585Z,75.2
2017-06-26T09:06:06.927Z,75.7
2017-06-26T09:07:06.135Z,75.7
2017-06-26T09:08:05.220Z,75.2
2017-06-26T09:10:04.192Z,75.9
2017-06-26T09:11:03.391Z,76
2017-06-26T09:12:02.857Z,75.8
2017-06-26T09:14:01.215Z,74.6
2017-06-26T09:15:00.433Z,74.8
2017-06-26T09:16:00.143Z,75.2
2017-06-26T09:16:59.117Z,75.2
2017-06-26T09:17:59.074Z,75.3
2017-06-26T09:18:57.775Z,75
2017-06-26T09:19:57.235Z,74.7
2017-06-26T09:20:56.320Z,74
2017-06-26T09:21:55.845Z,74.2
2017-06-26T09:22:55.043Z,74.4
2017-06-26T09:23:54.882Z,74.5
2017-06-26T09:24:54.078Z,74.6
2017-06-26T09:25:53.284Z,75.1
2017-06-26T09:27:51.928Z,75.1
2017-06-26T09:28:51.126Z,75.5
2017-06-26T09:29:50.589Z,75.3
2017-06-26T09:30:49.793Z,75.3
2017-06-26T09:31:48.997Z,75.7
2017-06-26T09:32:48.207Z,76.1
2017-06-26T09:33:47.857Z,75.9
2017-06-26T09:34:47.629Z,76
2017-06-26T09:35:46.403Z,76.2
2017-06-26T09:36:45.484Z,76.2
2017-06-26T09:37:45.180Z,76.3
2017-06-26T09:38:44.274Z,76.1
2017-06-26T09:39:43.475Z,75.5
2017-06-26T09:40:43.147Z,75.8
2017-06-26T09:41:42.610Z,75.7
2017-06-26T09:42:41.819Z,75.8
2017-06-26T09:43:41.020Z,76
2017-06-26T09:44:40.225Z,75.7
2017-06-26T09:45:39.499Z,75.6
2017-06-26T09:46:38.695Z,75.4
2017-06-26T09:47:38.665Z,74.7
2017-06-26T09:48:37.367Z,75.9
2017-06-26T09:49:36.951Z,77.2
2017-06-26T09:50:35.984Z,77.4
2017-06-26T09:51:35.188Z,78
2017-06-26T09:53:34.384Z,79.5
2017-06-26T09:54:33.540Z,78.8
2017-06-26T09:55:32.626Z,79.5
2017-06-26T09:56:32.209Z,80
2017-06-26T09:58:30.693Z,80.5
2017-06-26T09:59:30.098Z,80.7
2017-06-26T10:00:29.072Z,80.7
2017-06-26T10:01:28.739Z,81
2017-06-26T10:02:27.835Z,80.6
2017-06-26T10:03:26.928Z,80.7
2017-06-26T10:04:26.519Z,80.9
2017-06-26T10:05:25.848Z,80.9
2017-06-26T10:06:25.048Z,81.1
2017-06-26T10:07:24.263Z,81.2
2017-06-26T10:08:23.469Z,82.3
2017-06-26T10:09:23.170Z,82
2017-06-26T10:10:22.434Z,83.1
2017-06-26T10:11:21.778Z,82.6
2017-06-26T10:12:20.850Z,82.5
2017-06-26T10:13:20.047Z,82.6
2017-06-26T10:14:19.749Z,83
2017-06-26T10:15:19.005Z,83.8
2017-06-26T10:16:18.123Z,81.4
2017-06-26T10:17:17.633Z,81.2
2017-06-26T10:18:16.841Z,80.8
2017-06-26T10:19:15.927Z,81.4
2017-06-26T10:20:15.140Z,82
2017-06-26T10:21:14.612Z,82.5
2017-06-26T10:22:13.764Z,81.6
2017-06-26T10:23:13.726Z,81.3
2017-06-26T10:24:12.413Z,81.5
2017-06-26T10:25:11.694Z,79.4
2017-06-26T10:26:10.964Z,78.8
2017-06-26T10:27:10.431Z,78.2
2017-06-26T10:28:09.633Z,78.3
2017-06-26T10:29:09.087Z,78.8
2017-06-26T10:30:08.183Z,77.8
2017-06-26T10:31:07.898Z,77.8
2017-06-26T10:32:06.978Z,77.7
2017-06-26T10:33:06.056Z,77.4
2017-06-26T10:34:05.751Z,78.2
2017-06-26T10:34:36.454Z,78.2
2017-06-26T10:35:06.726Z,74.7
2017-06-26T10:35:37.235Z,74.7
2017-06-26T10:37:03.491Z,73.2
2017-06-26T10:38:03.075Z,73.2
2017-06-26T10:39:02.282Z,73.8
2017-06-26T10:40:01.637Z,74.1
2017-06-26T10:41:00.740Z,74.1
2017-06-26T10:42:00.892Z,74.5
2017-06-26T10:42:59.577Z,73.4
2017-06-26T10:43:58.778Z,73.7
2017-06-26T10:44:57.988Z,73.3
2017-06-26T10:45:57.830Z,71.9
2017-06-26T10:46:56.559Z,70.5
2017-06-26T10:47:56.159Z,71.2
2017-06-26T10:48:55.455Z,70.3
2017-06-26T10:49:54.734Z,69.9
2017-06-26T10:50:53.816Z,69.2
2017-06-26T10:51:53.653Z,69.2
2017-06-26T10:52:52.861Z,69.6
2017-06-26T10:53:52.068Z,69.5
2017-06-26T10:54:51.029Z,69.9
2017-06-26T10:55:50.734Z,69.3
2017-06-26T10:56:49.821Z,69.6
2017-06-26T10:57:49.640Z,70
2017-06-26T10:58:48.214Z,69.7
2017-06-26T10:59:47.924Z,69.6
2017-06-26T11:00:47.200Z,69.8
2017-06-26T11:02:45.788Z,69.6
2017-06-26T11:03:45.621Z,70.7
2017-06-26T11:04:44.313Z,69.8
2017-06-26T11:05:44.017Z,69.4
2017-06-26T11:06:43.214Z,69.7
2017-06-26T11:07:42.407Z,68.8
2017-06-26T11:08:41.993Z,68.7
2017-06-26T11:09:41.451Z,69.8
2017-06-26T11:10:40.709Z,69.9
2017-06-26T11:11:39.915Z,69.5
2017-06-26T11:12:39.118Z,70.6
2017-06-26T11:13:38.582Z,70.2
2017-06-26T11:14:37.665Z,69.7
2017-06-26T11:15:37.626Z,70
2017-06-26T11:16:36.403Z,70.9
2017-06-26T11:17:36.108Z,70.1
2017-06-26T11:19:34.698Z,70.5
2017-06-26T11:20:33.898Z,70.4
2017-06-26T11:21:33.407Z,68.7
2017-06-26T11:22:32.599Z,68
2017-06-26T11:23:31.803Z,68.2
2017-06-26T11:24:31.514Z,67.6
2017-06-26T11:25:30.596Z,68.7
2017-06-26T11:26:29.789Z,68.6
2017-06-26T11:27:29.624Z,68.1
2017-06-26T11:28:28.833Z,67.2
2017-06-26T11:30:27.433Z,67.4
2017-06-26T11:31:27.025Z,66.8
2017-06-26T11:33:25.870Z,68.3
2017-06-26T11:34:24.954Z,66.2
2017-06-26T11:35:24.099Z,66.8
2017-06-26T11:36:23.700Z,67.4
2017-06-26T11:37:22.667Z,67.1
2017-06-26T11:38:22.247Z,67.7
2017-06-26T11:39:21.693Z,67.5
2017-06-26T11:40:20.901Z,66.5
2017-06-26T11:41:20.116Z,65.9
2017-06-26T11:42:19.825Z,65.9
2017-06-26T11:43:19.029Z,65.7
2017-06-26T11:44:18.231Z,65
2017-06-26T11:46:17.584Z,64.7
2017-06-26T11:47:16.332Z,64.5
2017-06-26T11:48:16.044Z,65.1
2017-06-26T11:49:15.029Z,65.1
2017-06-26T11:50:14.506Z,65.7
2017-06-26T11:52:13.738Z,65.1
2017-06-26T11:53:12.941Z,65.3
2017-06-26T11:54:12.128Z,66.1
2017-06-26T11:55:11.718Z,66
2017-06-26T11:56:10.907Z,67
2017-06-26T11:57:10.105Z,67
2017-06-26T11:58:09.632Z,67
2017-06-26T11:59:09.215Z,66.8
2017-06-26T12:00:08.412Z,66.5
2017-06-26T12:01:07.609Z,66.5
2017-06-26T12:03:06.701Z,67.2
2017-06-26T12:04:05.966Z,66.9
2017-06-26T12:05:05.158Z,68.1
2017-06-26T12:06:05.014Z,68
2017-06-26T12:07:03.979Z,68.6
2017-06-26T12:08:03.060Z,68.5
2017-06-26T12:09:03.070Z,67.9
2017-06-26T12:10:02.158Z,67.7
2017-06-26T12:11:01.625Z,67.4
2017-06-26T12:12:00.902Z,67.5
2017-06-26T12:12:59.988Z,67
2017-06-26T12:13:59.719Z,66.4
2017-06-26T12:14:59.237Z,66.1
2017-06-26T12:15:58.440Z,65.3
2017-06-26T12:16:57.525Z,65.8
2017-06-26T12:17:57.228Z,66.7
2017-06-26T12:18:56.439Z,66.2
2017-06-26T12:19:55.548Z,66.2
2017-06-26T12:20:55.395Z,66.4
2017-06-26T12:21:54.484Z,66.8
2017-06-26T12:22:54.075Z,66.8
2017-06-26T12:23:53.289Z,66.7
2017-06-26T12:24:52.942Z,67.1
2017-06-26T12:25:52.153Z,67.1
2017-06-26T12:26:51.557Z,67.8
2017-06-26T12:27:50.761Z,67.8
2017-06-26T12:28:50.339Z,68
2017-06-26T12:29:49.535Z,68
2017-06-26T12:30:48.748Z,67.7
2017-06-26T12:31:48.447Z,67.3
2017-06-26T12:32:47.779Z,67.2
2017-06-26T12:33:46.980Z,66.9
2017-06-26T12:34:46.454Z,66.9
2017-06-26T12:35:45.688Z,66.5
2017-06-26T12:36:45.027Z,66.5
2017-06-26T12:37:44.615Z,65.7
2017-06-26T12:38:44.066Z,65.5
2017-06-26T12:39:43.256Z,65.5
2017-06-26T12:41:41.716Z,64.5
2017-06-26T12:42:41.301Z,64
2017-06-26T12:43:40.494Z,63.7
2017-06-26T12:44:40.326Z,63.6
2017-06-26T12:45:39.415Z,63.9
2017-06-26T12:46:38.496Z,64
2017-06-26T12:47:38.197Z,63.5
2017-06-26T12:48:37.339Z,63.6
2017-06-26T12:49:36.951Z,63.7
2017-06-26T12:50:36.411Z,64.1
2017-06-26T12:51:35.617Z,63.5
2017-06-26T12:52:05.880Z,63.5
2017-06-26T12:52:36.387Z,63.3
2017-06-26T12:53:06.893Z,63.3
2017-06-26T12:53:37.329Z,62.5
2017-06-26T12:54:33.515Z,62.6
2017-06-26T12:55:33.248Z,63
2017-06-26T12:56:32.594Z,61.9
2017-06-26T12:57:31.790Z,61.5
2017-06-26T12:58:31.379Z,61.5
2017-06-26T12:59:30.461Z,61.6
2017-06-26T13:00:30.156Z,61.4
2017-06-26T13:01:29.126Z,60.8
2017-06-26T13:02:29.071Z,60.9
2017-06-26T13:03:27.917Z,61.6
2017-06-26T13:04:28.065Z,60.8
2017-06-26T13:05:26.644Z,61.5
2017-06-26T13:06:26.124Z,61.4
2017-06-26T13:07:25.322Z,61.6
2017-06-26T13:08:25.153Z,60.7
2017-06-26T13:09:24.375Z,60.9
2017-06-26T13:10:23.579Z,61.4
2017-06-26T13:11:23.182Z,61.6
2017-06-26T13:12:22.391Z,61.7
2017-06-26T13:13:21.597Z,61.3
2017-06-26T13:14:21.534Z,61.5
2017-06-26T13:15:20.626Z,61
2017-06-26T13:16:19.822Z,61.3
2017-06-26T13:17:19.280Z,62.1
2017-06-26T13:18:18.477Z,62.6
2017-06-26T13:19:17.686Z,62.1
2017-06-26T13:20:17.706Z,63.2
2017-06-26T13:21:16.904Z,62.2
2017-06-26T13:22:16.103Z,61.8
2017-06-26T13:23:15.300Z,62.4
2017-06-26T13:24:15.004Z,62.4
2017-06-26T13:25:14.213Z,62.2
2017-06-26T13:26:13.605Z,61.9
2017-06-26T13:27:13.083Z,61.9
2017-06-26T13:28:12.290Z,61.8
2017-06-26T13:29:11.489Z,62
2017-06-26T13:30:11.777Z,61.9
2017-06-26T13:31:10.478Z,62.1
2017-06-26T13:32:09.945Z,62.3
2017-06-26T13:33:09.149Z,62.5
2017-06-26T13:34:08.352Z,62.7
2017-06-26T13:35:08.057Z,61.9
2017-06-26T13:36:07.029Z,62.2
2017-06-26T13:37:06.738Z,62
2017-06-26T13:38:06.119Z,61.6
2017-06-26T13:39:05.333Z,61.4
2017-06-26T13:40:04.915Z,61.8
2017-06-26T13:41:03.879Z,61.8
2017-06-26T13:42:03.453Z,62.6
2017-06-26T13:43:03.289Z,62.2
2017-06-26T13:44:01.982Z,62.9